Free Trial

Alteryx (AYX) Institutional Ownership

Notice: This company has been marked as potentially delisted and may not be actively trading.

Institutional Ownership Changes (13F Filings) for Alteryx (NYSE:AYX)

Current
Institutional Ownership
Percentage
72.37%
Number of
Institutional Buyers
(last 12 months)
105
Total
Institutional Inflows
(last 12 months)
$751.74M
Number of
Institutional Sellers
(last 12 months)
47
Total
Institutional Outflows
(last 12 months)
$708.14M
Get AYX Insider Trade Alerts

Want to know when executives and insiders are buying or selling Alteryx stock? Sign up for InsiderTrades.com's daily newsletter to get the latest insider transactions delivered to your inbox daily.

Skip Chart & View Institutional Buying and Selling Data

AYX Institutional Buying and Selling by Quarter

Alteryx Major Shareholders & Ownership History

Reporting DateMajor Shareholder NameShares HeldMarket Value% of PortfolioQuarterly Change in SharesOwnership in CompanyDetails
3/21/2024 Healthcare of Ontario Pension Plan Trust Fund201,688$9.51M0.0%-30.0%0.279%
3/11/2024 Vanguard Group Inc.6,409,648$302.28M0.0%-2.5%8.869%
3/5/2024 Fisher Asset Management LLC1,433$68K0.0%-99.1%0.002%
3/4/2024 Congress Asset Management Co. MA88,874$4.19M0.0%-3.3%0.123%
2/26/2024Virtu Financial LLC4,864$229K0.0%N/A0.007%
2/20/2024 Clarity Capital Partners LLC21,139$997K0.7%N/A0.029%
2/15/2024 Brown Capital Management LLC421,629$19.88M0.3%-1.6%0.587%
2/15/2024 Bares Capital Management Inc.2,484,321$117.16M4.6%+5.2%3.461%
2/15/2024 Beryl Capital Management LLC563,299$26.57M14.0%N/A0.785%
2/14/2024 ADAR1 Capital Management LLC62,038$2.93M1.0%N/A0.086%
2/14/2024 TFG Asset Management GP Ltd400,000$18.86M4.5%-20.0%0.557%
2/14/2024 Scalar Gauge Management LLC8,000$377K0.4%N/A0.011%
2/14/2024 PenderFund Capital Management Ltd.14,400$679K0.0%N/A0.020%
2/14/2024 Harber Asset Management LLC453,168$21.37M5.0%-34.6%0.631%
2/14/2024 P Schoenfeld Asset Management LP105,000$4.95M1.2%N/A0.146%
2/14/2024 Crosslink Capital Inc.102,887$4.85M0.7%-64.5%0.143%
2/14/2024 Angelo Gordon & CO. L.P.120,000$5.66M1.8%N/A0.167%
2/14/2024 Balyasny Asset Management L.P.1,459,852$68.85M0.1%+273.9%2.034%
2/14/2024 Lighthouse Investment Partners LLC4,550$215K0.0%N/A0.006%
2/14/2024 Intrinsic Edge Capital Management LLC120,000$5.66M0.6%N/A0.167%
2/14/2024 EHP Funds Inc.28,000$1.32M0.5%N/A0.039%
2/14/2024 Water Island Capital LLC783,720$36.96M3.8%N/A1.092%
2/14/2024 Bardin Hill Management Partners LP194,094$9.15M3.9%N/A0.270%
2/14/2024 Kettle Hill Capital Management LLC277,393$13.08M3.4%N/A0.386%
2/13/2024 GABELLI & Co INVESTMENT ADVISERS INC.54,650$2.58M0.5%N/A0.076%
2/13/2024 Gabelli Funds LLC88,180$4.16M0.0%N/A0.123%
2/13/2024 Gardner Lewis Asset Management L P17,100$806K0.3%N/A0.024%
2/12/2024 DLD Asset Management LP16,500$778K0.1%N/A0.023%
2/12/2024 Madison Asset Management LLC86,353$4.07M0.1%+23.4%0.120%
2/12/2024 Brown Brothers Harriman & Co.16,155$762K0.0%+17.8%0.023%
2/12/2024Treasurer of the State of North Carolina27,157$1.28M0.0%+1.0%0.038%
2/9/2024 US Bancorp DE14,794$698K0.0%-6.7%0.021%
2/9/2024 Franklin Resources Inc.45,419$2.14M0.0%-86.6%0.063%
2/9/2024 Trexquant Investment LP125,713$5.93M0.1%N/A0.175%
2/9/2024 Corient Private Wealth LLC12,204$576K0.0%+16.4%0.017%
2/7/2024 Jump Financial LLC8,211$387K0.0%-84.1%0.011%
2/7/2024 BNP Paribas Financial Markets46,228$2.18M0.0%-95.2%0.064%
2/7/2024 Alpine Associates Management Inc.317,200$14.96M0.8%N/A0.442%
2/7/2024Kellner Capital LLC52,800$2.49M4.5%N/A0.074%
2/6/2024 Picton Mahoney Asset Management529,000$24.95M0.7%N/A0.737%
Exposed: 10 CENT Crypto to Explode May 20th? (Ad)

Chris Rowe – the man who recommended Amazon in 1998… Bitcoin and Ethereum in 2017… And has spotted 44 different coins that have returned over 100%... Today, he is now making the biggest crypto call of his ENTIRE career…

Click For My #1 FREE Crypto for 2024
2/6/2024 Charles Schwab Investment Management Inc.363,073$17.12M0.0%+3.1%0.506%
2/6/2024 BCK Capital Management LP70,000$3.30M3.2%N/A0.098%
2/6/2024 Maryland State Retirement & Pension System4,271$201K0.0%N/A0.006%
2/6/2024 Private Advisor Group LLC5,146$243K0.0%N/A0.007%
2/6/2024 National Bank of Canada FI108,426$5.10M0.0%-42.3%0.151%
2/6/2024 Amalgamated Bank12,516$590K0.0%-3.8%0.017%
2/6/2024 Swiss National Bank118,200$5.57M0.0%-9.5%0.165%
2/6/2024 Fisher Asset Management LLC1,433$68K0.0%-99.1%0.002%
2/5/2024 Victory Capital Management Inc.8,189$386K0.0%+24.2%0.011%
2/5/2024 Russell Investments Group Ltd.2,554$120K0.0%-90.7%0.004%
2/2/2024 Tokio Marine Asset Management Co. Ltd.106,412$5.02M0.3%N/A0.148%
2/1/2024 National Wealth Management Group LLC7,080$334K0.3%N/A0.010%
2/1/2024 New York State Common Retirement Fund214,054$10.10M0.0%-3.4%0.298%
2/1/2024 Sumitomo Mitsui DS Asset Management Company Ltd4,283$202K0.0%N/A0.006%
1/31/2024 Xponance Inc.8,443$398K0.0%-2.7%0.012%
1/31/2024 Federated Hermes Inc.1,994,623$94.07M0.2%+28.7%2.779%
1/30/2024 Zurcher Kantonalbank Zurich Cantonalbank 15,373$725K0.0%-57.2%0.021%
1/30/2024 Mackenzie Financial Corp2,975,238$140.31M0.2%0.0%4.145%
1/30/2024 Vontobel Holding Ltd.26,356$1.24M0.0%-26.1%0.037%
1/25/2024 180 Wealth Advisors LLC79,016$3.72M0.7%-1.3%0.110%
1/19/2024 Pinnacle Associates Ltd.23,969$1.13M0.0%-1.6%0.033%
1/18/2024 Blue Trust Inc.2,768$131K0.0%+27,580.0%0.004%
1/12/2024 SG Americas Securities LLC12,601$594K0.0%+194.1%0.018%
1/5/2024 Michael S. Ryan Inc.4,520$213K0.2%N/A0.006%
1/5/2024 Exchange Traded Concepts LLC49,083$2.32M0.1%-16.8%0.068%
12/19/2023 Public Employees Retirement System of Ohio24,942$940K0.0%-10.0%0.035%
12/18/2023 Vanguard Group Inc.6,571,631$247.69M0.0%+8.8%9.155%
11/15/2023 Jericho Capital Asset Management L.P.1,331,056$50.17M1.7%N/A1.873%
11/15/2023 KADENSA CAPITAL Ltd335,216$12.63M2.5%+14.3%0.472%
11/15/2023 Kent Lake Capital LLC300,000$11.31M4.3%N/A0.422%
11/15/2023 Adage Capital Partners GP L.L.C.75,000$2.83M0.0%N/A0.106%
11/15/2023 AXQ Capital LP13,400$505K0.2%N/A0.019%
11/14/2023 Bares Capital Management Inc.2,361,169$88.99M3.8%+9.7%3.323%
11/14/2023 Gotham Asset Management LLC116,795$4.40M0.1%+1,204.1%0.164%
11/14/2023 Fred Alger Management LLC686,607$25.88M0.1%N/A0.966%
11/14/2023 Hawk Ridge Capital Management LP2,046,000$77.11M3.8%-23.1%2.880%
11/14/2023 B. Riley Asset Management LLC144,698$5.45M2.2%+202.1%0.204%
11/14/2023 Tower Research Capital LLC TRC8,412$317K0.0%+1,083.1%0.012%
11/14/2023 Synovus Financial Corp7,920$299K0.0%-19.4%0.011%
11/13/2023 Shannon River Fund Management LLC618,669$23.32M4.6%+2.7%0.871%
11/13/2023 Algert Global LLC15,040$567K0.0%-35.6%0.021%
11/13/2023 Federated Hermes Inc.1,549,600$58.40M0.2%+24.0%2.181%
11/13/2023 Healthcare of Ontario Pension Plan Trust Fund288,100$10.86M0.0%N/A0.405%
11/13/2023 Hsbc Holdings PLC28,220$1.08M0.0%+58.6%0.040%
11/13/2023 PNC Financial Services Group Inc.1,482$56K0.0%+165.6%0.002%
11/9/2023 Skandinaviska Enskilda Banken AB publ18,086$682K0.0%+41.5%0.025%
11/8/2023 Charles Schwab Investment Management Inc.352,103$13.27M0.0%+5.3%0.496%
11/8/2023 Swiss National Bank130,600$4.92M0.0%+2.4%0.184%
11/8/2023 New York Life Investment Management LLC6,051$228K0.0%-13.6%0.009%
11/8/2023 Oppenheimer & Co. Inc.20,714$781K0.0%-22.6%0.029%
Bill Clinton Backing Biden Replacement??? (Ad)

Bill Clinton is back. And he just met in Mexico with the one person I believe could REPLACE Joe Biden by August…

Click here now for my urgent election forecast.
11/7/2023 New York State Common Retirement Fund221,558$8.35M0.0%-98.1%0.312%
11/7/2023 Fox Run Management L.L.C.6,569$248K0.1%N/A0.009%
11/7/2023 Jump Financial LLC51,729$1.95M0.1%+39.7%0.073%
11/7/2023 Arizona State Retirement System16,923$638K0.0%+2.9%0.024%
11/6/2023 Assenagon Asset Management S.A.23,501$886K0.0%-85.2%0.033%
11/2/2023 Principal Financial Group Inc.7,694$290K0.0%+10.7%0.011%
11/2/2023 Duality Advisers LP46,941$1.77M0.2%+35.0%0.066%
11/1/2023 180 Wealth Advisors LLC80,049$3.02M0.7%+33.2%0.113%
10/31/2023 Panagora Asset Management Inc.83,093$3.13M0.0%N/A0.117%
10/30/2023 CFO4Life Group LLC34,911$1.32M0.3%-34.0%0.049%
(Data available from 1/1/2016 forward)

AYX Institutional Ownership - Frequently Asked Questions

Who are the largest shareholders of AYX shares?

During the previous two years, 235 institutional investors and hedge funds held shares of Alteryx. The most heavily invested institutionals were Vanguard Group Inc. ($302.28M), Capital World Investors ($141.79M), Mackenzie Financial Corp ($140.31M), Bares Capital Management Inc. ($117.16M), Federated Hermes Inc. ($94.07M), Hawk Ridge Capital Management LP ($77.11M), and Marshall Wace LLP ($74.97M).Learn more on AYX's institutional investors.

What percentage of Alteryx stock is owned by institutional investors?

72.37% of Alteryx stock is owned by institutional investors. Learn more on AYX's institutional investor holdings.

Which institutional investors have been buying Alteryx stock?

Of the 192 institutional investors that purchased Alteryx stock in the last 24 months, the following investors and hedge funds have bought the highest volume of shares: Hawk Ridge Capital Management LP ($2.66M), Marshall Wace LLP ($1.53M), Assenagon Asset Management S.A. ($1.38M), Jericho Capital Asset Management L.P. ($1.33M), Federated Hermes Inc. ($1.18M), Balyasny Asset Management L.P. ($1.07M), and Point72 Asset Management L.P. ($909.01K).

How much institutional buying is happening at Alteryx?

Institutional investors have bought a total of 25,048,111 shares in the last 24 months. This purchase volume represents approximately $1.17B in transactions.

Which Alteryx major shareholders have been selling company stock?

Of the 105 institutional investors that sold Alteryx stock in the last 24 months, the following investors and hedge funds have sold the highest volume of shares: Franklin Resources Inc. ($40.30M), Nuveen Asset Management LLC ($17.60M), UBS Asset Management Americas Inc. ($15.08M), New York State Common Retirement Fund ($11.47M), Bares Capital Management Inc. ($2.30M), Assenagon Asset Management S.A. ($1.52M), and BNP Paribas Financial Markets ($915.53K).

How much institutional selling is happening at Alteryx?

Institutional investors have sold a total of 96,601,589 shares in the last 24 months. This volume of shares sold represents approximately $4.79B in transactions.


This page (NYSE:AYX) was last updated on 5/21/2024 by MarketBeat.com Staff

From Our Partners